sensor_id;sensor_type;location;lat;lon;timestamp;P1;durP1;ratioP1;P2;durP2;ratioP2
33794;SDS011;51430;52.242;21.118;2023-07-30T00:00:01;5.90;;;4.60;;
33794;SDS011;51430;52.242;21.118;2023-07-30T00:02:30;6.40;;;4.10;;
33794;SDS011;51430;52.242;21.118;2023-07-30T00:04:57;5.40;;;4.50;;
33794;SDS011;51430;52.242;21.118;2023-07-30T00:07:25;4.30;;;3.60;;
33794;SDS011;51430;52.242;21.118;2023-07-30T00:09:53;4.60;;;4.00;;
33794;SDS011;51430;52.242;21.118;2023-07-30T00:12:21;4.50;;;4.00;;
33794;SDS011;51430;52.242;21.118;2023-07-30T00:14:54;5.70;;;4.60;;
33794;SDS011;51430;52.242;21.118;2023-07-30T00:17:22;5.70;;;4.30;;
33794;SDS011;51430;52.242;21.118;2023-07-30T00:19:50;6.80;;;4.80;;
33794;SDS011;51430;52.242;21.118;2023-07-30T00:22:18;6.10;;;4.70;;
33794;SDS011;51430;52.242;21.118;2023-07-30T00:24:50;6.70;;;4.70;;
33794;SDS011;51430;52.242;21.118;2023-07-30T00:27:18;6.60;;;4.90;;
33794;SDS011;51430;52.242;21.118;2023-07-30T00:29:49;5.70;;;5.10;;
33794;SDS011;51430;52.242;21.118;2023-07-30T00:32:17;7.80;;;5.50;;
33794;SDS011;51430;52.242;21.118;2023-07-30T00:34:45;5.60;;;5.10;;
33794;SDS011;51430;52.242;21.118;2023-07-30T00:37:13;6.00;;;5.50;;
33794;SDS011;51430;52.242;21.118;2023-07-30T00:39:41;6.20;;;5.30;;
33794;SDS011;51430;52.242;21.118;2023-07-30T00:42:09;6.30;;;5.50;;
33794;SDS011;51430;52.242;21.118;2023-07-30T00:44:37;7.30;;;5.20;;
33794;SDS011;51430;52.242;21.118;2023-07-30T00:47:05;5.70;;;5.10;;
33794;SDS011;51430;52.242;21.118;2023-07-30T00:49:33;7.60;;;5.40;;
33794;SDS011;51430;52.242;21.118;2023-07-30T00:52:01;5.90;;;5.30;;
33794;SDS011;51430;52.242;21.118;2023-07-30T00:54:30;7.10;;;4.90;;
33794;SDS011;51430;52.242;21.118;2023-07-30T00:56:57;6.40;;;5.50;;
33794;SDS011;51430;52.242;21.118;2023-07-30T00:59:25;6.90;;;5.20;;
33794;SDS011;51430;52.242;21.118;2023-07-30T01:01:54;5.30;;;4.60;;
33794;SDS011;51430;52.242;21.118;2023-07-30T01:04:25;5.70;;;5.20;;
33794;SDS011;51430;52.242;21.118;2023-07-30T01:06:53;5.60;;;4.90;;
33794;SDS011;51430;52.242;21.118;2023-07-30T01:09:21;4.60;;;4.20;;
33794;SDS011;51430;52.242;21.118;2023-07-30T01:11:50;5.60;;;4.50;;
33794;SDS011;51430;52.242;21.118;2023-07-30T01:14:19;5.20;;;4.70;;
33794;SDS011;51430;52.242;21.118;2023-07-30T01:16:48;6.10;;;4.10;;
33794;SDS011;51430;52.242;21.118;2023-07-30T01:19:16;5.40;;;4.20;;
33794;SDS011;51430;52.242;21.118;2023-07-30T01:21:44;5.00;;;4.40;;
33794;SDS011;51430;52.242;21.118;2023-07-30T01:24:12;5.00;;;4.30;;
33794;SDS011;51430;52.242;21.118;2023-07-30T01:31:07;5.00;;;3.80;;
33794;SDS011;51430;52.242;21.118;2023-07-30T01:33:35;5.00;;;4.20;;
33794;SDS011;51430;52.242;21.118;2023-07-30T01:36:06;6.50;;;4.00;;
33794;SDS011;51430;52.242;21.118;2023-07-30T01:38:38;4.50;;;3.60;;
33794;SDS011;51430;52.242;21.118;2023-07-30T01:41:07;4.00;;;3.60;;
33794;SDS011;51430;52.242;21.118;2023-07-30T01:43:35;5.40;;;3.90;;
33794;SDS011;51430;52.242;21.118;2023-07-30T01:46:03;3.40;;;3.20;;
33794;SDS011;51430;52.242;21.118;2023-07-30T01:48:31;4.40;;;4.00;;
33794;SDS011;51430;52.242;21.118;2023-07-30T01:50:59;4.40;;;3.40;;
33794;SDS011;51430;52.242;21.118;2023-07-30T01:56:00;4.70;;;3.50;;
33794;SDS011;51430;52.242;21.118;2023-07-30T01:58:28;4.70;;;3.60;;
33794;SDS011;51430;52.242;21.118;2023-07-30T02:00:56;5.40;;;3.50;;
33794;SDS011;51430;52.242;21.118;2023-07-30T02:03:24;3.60;;;3.20;;
33794;SDS011;51430;52.242;21.118;2023-07-30T02:05:53;3.80;;;3.30;;
33794;SDS011;51430;52.242;21.118;2023-07-30T02:08:20;5.30;;;3.80;;
33794;SDS011;51430;52.242;21.118;2023-07-30T02:10:55;4.10;;;3.60;;
33794;SDS011;51430;52.242;21.118;2023-07-30T02:13:24;4.00;;;3.40;;
33794;SDS011;51430;52.242;21.118;2023-07-30T02:15:52;5.50;;;3.70;;
33794;SDS011;51430;52.242;21.118;2023-07-30T02:18:20;5.00;;;3.60;;
33794;SDS011;51430;52.242;21.118;2023-07-30T02:20:48;4.80;;;3.20;;
33794;SDS011;51430;52.242;21.118;2023-07-30T02:23:16;4.00;;;3.30;;
33794;SDS011;51430;52.242;21.118;2023-07-30T02:25:44;4.40;;;3.40;;
33794;SDS011;51430;52.242;21.118;2023-07-30T02:28:12;5.20;;;3.70;;
33794;SDS011;51430;52.242;21.118;2023-07-30T02:30:42;4.70;;;3.40;;
33794;SDS011;51430;52.242;21.118;2023-07-30T02:33:09;4.70;;;3.40;;
33794;SDS011;51430;52.242;21.118;2023-07-30T02:35:37;4.30;;;3.90;;
33794;SDS011;51430;52.242;21.118;2023-07-30T02:38:05;3.90;;;3.60;;
33794;SDS011;51430;52.242;21.118;2023-07-30T02:40:33;5.60;;;3.90;;
33794;SDS011;51430;52.242;21.118;2023-07-30T02:43:00;5.00;;;4.00;;
33794;SDS011;51430;52.242;21.118;2023-07-30T02:45:29;4.60;;;4.20;;
33794;SDS011;51430;52.242;21.118;2023-07-30T02:47:57;6.00;;;4.50;;
33794;SDS011;51430;52.242;21.118;2023-07-30T02:50:25;5.00;;;4.30;;
33794;SDS011;51430;52.242;21.118;2023-07-30T02:52:52;4.80;;;4.40;;
33794;SDS011;51430;52.242;21.118;2023-07-30T02:55:20;5.60;;;4.30;;
33794;SDS011;51430;52.242;21.118;2023-07-30T02:57:48;5.50;;;4.50;;
33794;SDS011;51430;52.242;21.118;2023-07-30T03:00:16;5.10;;;4.60;;
33794;SDS011;51430;52.242;21.118;2023-07-30T03:02:44;5.30;;;4.50;;
33794;SDS011;51430;52.242;21.118;2023-07-30T03:05:13;7.40;;;5.00;;
33794;SDS011;51430;52.242;21.118;2023-07-30T03:07:41;5.30;;;4.70;;
33794;SDS011;51430;52.242;21.118;2023-07-30T03:12:16;5.10;;;4.70;;
33794;SDS011;51430;52.242;21.118;2023-07-30T03:14:44;8.90;;;8.00;;
33794;SDS011;51430;52.242;21.118;2023-07-30T03:17:11;6.80;;;6.10;;
33794;SDS011;51430;52.242;21.118;2023-07-30T03:19:39;6.90;;;6.30;;
33794;SDS011;51430;52.242;21.118;2023-07-30T03:22:07;6.90;;;6.30;;
33794;SDS011;51430;52.242;21.118;2023-07-30T03:24:35;6.90;;;6.20;;
33794;SDS011;51430;52.242;21.118;2023-07-30T03:27:03;7.10;;;6.40;;
33794;SDS011;51430;52.242;21.118;2023-07-30T03:29:31;6.80;;;6.30;;
33794;SDS011;51430;52.242;21.118;2023-07-30T03:31:59;7.50;;;6.20;;
33794;SDS011;51430;52.242;21.118;2023-07-30T03:34:26;6.30;;;5.80;;
33794;SDS011;51430;52.242;21.118;2023-07-30T03:36:54;6.90;;;6.30;;
33794;SDS011;51430;52.242;21.118;2023-07-30T03:39:22;7.10;;;6.40;;
33794;SDS011;51430;52.242;21.118;2023-07-30T03:41:50;7.10;;;5.80;;
33794;SDS011;51430;52.242;21.118;2023-07-30T03:44:18;6.60;;;6.00;;
33794;SDS011;51430;52.242;21.118;2023-07-30T03:46:46;7.80;;;5.90;;
33794;SDS011;51430;52.242;21.118;2023-07-30T03:49:13;6.60;;;6.00;;
33794;SDS011;51430;52.242;21.118;2023-07-30T03:51:41;5.90;;;5.40;;
33794;SDS011;51430;52.242;21.118;2023-07-30T03:54:09;6.50;;;5.60;;
33794;SDS011;51430;52.242;21.118;2023-07-30T03:56:37;5.60;;;5.10;;
33794;SDS011;51430;52.242;21.118;2023-07-30T03:59:05;5.80;;;5.30;;
33794;SDS011;51430;52.242;21.118;2023-07-30T04:01:33;5.90;;;5.30;;
33794;SDS011;51430;52.242;21.118;2023-07-30T04:04:01;5.70;;;5.20;;
33794;SDS011;51430;52.242;21.118;2023-07-30T04:06:29;6.50;;;5.50;;
33794;SDS011;51430;52.242;21.118;2023-07-30T04:08:57;6.90;;;5.40;;
33794;SDS011;51430;52.242;21.118;2023-07-30T04:11:25;8.80;;;5.80;;
33794;SDS011;51430;52.242;21.118;2023-07-30T04:13:53;6.00;;;5.30;;
33794;SDS011;51430;52.242;21.118;2023-07-30T04:16:20;5.50;;;4.90;;
33794;SDS011;51430;52.242;21.118;2023-07-30T04:18:48;6.70;;;5.20;;
33794;SDS011;51430;52.242;21.118;2023-07-30T04:21:16;6.10;;;4.90;;
33794;SDS011;51430;52.242;21.118;2023-07-30T04:23:44;7.00;;;5.00;;
33794;SDS011;51430;52.242;21.118;2023-07-30T04:26:11;6.00;;;5.10;;
33794;SDS011;51430;52.242;21.118;2023-07-30T04:28:39;5.50;;;4.80;;
33794;SDS011;51430;52.242;21.118;2023-07-30T04:31:07;5.20;;;4.70;;
33794;SDS011;51430;52.242;21.118;2023-07-30T04:33:35;5.10;;;4.50;;
33794;SDS011;51430;52.242;21.118;2023-07-30T04:36:03;5.70;;;4.50;;
33794;SDS011;51430;52.242;21.118;2023-07-30T04:38:31;5.00;;;4.50;;
33794;SDS011;51430;52.242;21.118;2023-07-30T04:40:59;4.80;;;4.30;;
33794;SDS011;51430;52.242;21.118;2023-07-30T04:43:27;5.10;;;4.30;;
33794;SDS011;51430;52.242;21.118;2023-07-30T04:45:54;4.90;;;4.20;;
33794;SDS011;51430;52.242;21.118;2023-07-30T04:48:23;4.50;;;4.20;;
33794;SDS011;51430;52.242;21.118;2023-07-30T04:50:51;4.40;;;4.10;;
33794;SDS011;51430;52.242;21.118;2023-07-30T04:53:19;5.60;;;4.40;;
33794;SDS011;51430;52.242;21.118;2023-07-30T04:55:48;4.60;;;4.20;;
33794;SDS011;51430;52.242;21.118;2023-07-30T04:58:16;4.50;;;3.70;;
33794;SDS011;51430;52.242;21.118;2023-07-30T05:00:45;4.10;;;3.50;;
33794;SDS011;51430;52.242;21.118;2023-07-30T05:03:13;4.10;;;3.70;;
33794;SDS011;51430;52.242;21.118;2023-07-30T05:05:41;4.10;;;3.70;;
33794;SDS011;51430;52.242;21.118;2023-07-30T05:08:09;4.00;;;3.60;;
33794;SDS011;51430;52.242;21.118;2023-07-30T05:10:37;4.40;;;3.80;;
33794;SDS011;51430;52.242;21.118;2023-07-30T05:13:05;6.00;;;4.40;;
33794;SDS011;51430;52.242;21.118;2023-07-30T05:15:33;4.90;;;4.20;;
33794;SDS011;51430;52.242;21.118;2023-07-30T05:18:00;4.80;;;4.30;;
33794;SDS011;51430;52.242;21.118;2023-07-30T05:20:28;5.70;;;4.70;;
33794;SDS011;51430;52.242;21.118;2023-07-30T05:22:57;8.00;;;7.30;;
33794;SDS011;51430;52.242;21.118;2023-07-30T05:25:25;6.50;;;5.90;;
33794;SDS011;51430;52.242;21.118;2023-07-30T05:27:53;5.00;;;4.60;;
33794;SDS011;51430;52.242;21.118;2023-07-30T05:30:21;5.00;;;4.60;;
33794;SDS011;51430;52.242;21.118;2023-07-30T05:32:49;4.20;;;3.90;;
33794;SDS011;51430;52.242;21.118;2023-07-30T05:35:27;4.10;;;3.80;;
33794;SDS011;51430;52.242;21.118;2023-07-30T05:37:59;4.90;;;4.20;;
33794;SDS011;51430;52.242;21.118;2023-07-30T05:40:27;4.50;;;4.20;;
33794;SDS011;51430;52.242;21.118;2023-07-30T05:46:20;4.50;;;3.60;;
33794;SDS011;51430;52.242;21.118;2023-07-30T05:48:48;4.40;;;3.70;;
33794;SDS011;51430;52.242;21.118;2023-07-30T05:51:16;4.40;;;3.70;;
33794;SDS011;51430;52.242;21.118;2023-07-30T05:53:43;3.70;;;3.40;;
33794;SDS011;51430;52.242;21.118;2023-07-30T05:56:11;3.90;;;3.60;;
33794;SDS011;51430;52.242;21.118;2023-07-30T05:58:41;4.00;;;3.70;;
33794;SDS011;51430;52.242;21.118;2023-07-30T06:01:09;6.20;;;5.50;;
33794;SDS011;51430;52.242;21.118;2023-07-30T06:03:37;4.20;;;3.80;;
33794;SDS011;51430;52.242;21.118;2023-07-30T06:06:05;4.60;;;3.60;;
33794;SDS011;51430;52.242;21.118;2023-07-30T06:08:32;5.10;;;3.60;;
33794;SDS011;51430;52.242;21.118;2023-07-30T06:11:03;4.10;;;3.30;;
33794;SDS011;51430;52.242;21.118;2023-07-30T06:13:31;4.20;;;3.40;;
33794;SDS011;51430;52.242;21.118;2023-07-30T06:15:59;4.70;;;3.70;;
33794;SDS011;51430;52.242;21.118;2023-07-30T06:18:27;4.90;;;4.00;;
33794;SDS011;51430;52.242;21.118;2023-07-30T06:20:57;4.50;;;4.10;;
33794;SDS011;51430;52.242;21.118;2023-07-30T06:23:25;11.00;;;8.90;;
33794;SDS011;51430;52.242;21.118;2023-07-30T06:25:53;4.90;;;4.50;;
33794;SDS011;51430;52.242;21.118;2023-07-30T06:28:20;4.60;;;4.10;;
33794;SDS011;51430;52.242;21.118;2023-07-30T06:30:48;4.30;;;3.90;;
33794;SDS011;51430;52.242;21.118;2023-07-30T06:33:17;7.40;;;4.00;;
33794;SDS011;51430;52.242;21.118;2023-07-30T06:35:45;3.80;;;3.50;;
33794;SDS011;51430;52.242;21.118;2023-07-30T06:38:13;4.60;;;3.50;;
33794;SDS011;51430;52.242;21.118;2023-07-30T06:40:40;3.60;;;3.00;;
33794;SDS011;51430;52.242;21.118;2023-07-30T06:43:08;5.20;;;2.90;;
33794;SDS011;51430;52.242;21.118;2023-07-30T06:45:36;3.60;;;2.80;;
33794;SDS011;51430;52.242;21.118;2023-07-30T06:48:04;3.60;;;2.60;;
33794;SDS011;51430;52.242;21.118;2023-07-30T06:50:31;3.70;;;2.40;;
33794;SDS011;51430;52.242;21.118;2023-07-30T06:53:56;3.20;;;2.60;;
33794;SDS011;51430;52.242;21.118;2023-07-30T06:56:27;3.00;;;2.70;;
33794;SDS011;51430;52.242;21.118;2023-07-30T06:58:56;4.00;;;2.90;;
33794;SDS011;51430;52.242;21.118;2023-07-30T07:01:24;4.00;;;2.60;;
33794;SDS011;51430;52.242;21.118;2023-07-30T07:03:52;3.20;;;2.80;;
33794;SDS011;51430;52.242;21.118;2023-07-30T07:06:20;4.30;;;2.70;;
33794;SDS011;51430;52.242;21.118;2023-07-30T07:10:35;7.00;;;6.10;;
33794;SDS011;51430;52.242;21.118;2023-07-30T07:13:50;3.20;;;2.90;;
33794;SDS011;51430;52.242;21.118;2023-07-30T07:17:29;4.40;;;3.30;;
33794;SDS011;51430;52.242;21.118;2023-07-30T07:21:10;3.50;;;3.10;;
33794;SDS011;51430;52.242;21.118;2023-07-30T07:23:38;4.10;;;3.70;;
33794;SDS011;51430;52.242;21.118;2023-07-30T07:26:06;4.50;;;3.40;;
33794;SDS011;51430;52.242;21.118;2023-07-30T07:28:34;5.60;;;3.90;;
33794;SDS011;51430;52.242;21.118;2023-07-30T07:31:02;3.50;;;2.80;;
33794;SDS011;51430;52.242;21.118;2023-07-30T07:33:30;3.80;;;2.70;;
33794;SDS011;51430;52.242;21.118;2023-07-30T07:36:04;3.20;;;2.90;;
33794;SDS011;51430;52.242;21.118;2023-07-30T07:38:33;3.80;;;3.10;;
33794;SDS011;51430;52.242;21.118;2023-07-30T07:41:02;6.30;;;3.60;;
33794;SDS011;51430;52.242;21.118;2023-07-30T07:43:29;4.90;;;3.40;;
33794;SDS011;51430;52.242;21.118;2023-07-30T07:45:57;5.00;;;4.40;;
33794;SDS011;51430;52.242;21.118;2023-07-30T07:48:25;3.80;;;3.40;;
33794;SDS011;51430;52.242;21.118;2023-07-30T07:50:53;3.70;;;3.40;;
33794;SDS011;51430;52.242;21.118;2023-07-30T07:53:21;4.50;;;3.50;;
33794;SDS011;51430;52.242;21.118;2023-07-30T07:55:51;3.70;;;3.30;;
33794;SDS011;51430;52.242;21.118;2023-07-30T07:58:18;5.20;;;3.20;;
33794;SDS011;51430;52.242;21.118;2023-07-30T08:00:46;3.90;;;3.20;;
33794;SDS011;51430;52.242;21.118;2023-07-30T08:03:14;5.00;;;3.50;;
33794;SDS011;51430;52.242;21.118;2023-07-30T08:05:42;9.00;;;5.60;;
33794;SDS011;51430;52.242;21.118;2023-07-30T08:08:11;3.40;;;3.10;;
33794;SDS011;51430;52.242;21.118;2023-07-30T08:10:40;4.40;;;3.10;;
33794;SDS011;51430;52.242;21.118;2023-07-30T08:13:10;3.70;;;3.30;;
33794;SDS011;51430;52.242;21.118;2023-07-30T08:15:38;3.80;;;3.40;;
33794;SDS011;51430;52.242;21.118;2023-07-30T08:18:06;4.90;;;3.50;;
33794;SDS011;51430;52.242;21.118;2023-07-30T08:23:27;4.00;;;3.30;;
33794;SDS011;51430;52.242;21.118;2023-07-30T08:25:55;5.10;;;3.40;;
33794;SDS011;51430;52.242;21.118;2023-07-30T08:28:23;4.50;;;3.30;;
33794;SDS011;51430;52.242;21.118;2023-07-30T08:30:51;4.20;;;3.40;;
33794;SDS011;51430;52.242;21.118;2023-07-30T08:33:19;5.50;;;3.40;;
33794;SDS011;51430;52.242;21.118;2023-07-30T08:35:46;4.50;;;3.40;;
33794;SDS011;51430;52.242;21.118;2023-07-30T08:38:14;4.40;;;3.70;;
33794;SDS011;51430;52.242;21.118;2023-07-30T08:40:52;3.50;;;3.20;;
33794;SDS011;51430;52.242;21.118;2023-07-30T08:43:20;4.40;;;3.30;;
33794;SDS011;51430;52.242;21.118;2023-07-30T08:45:48;6.00;;;4.70;;
33794;SDS011;51430;52.242;21.118;2023-07-30T08:48:16;4.80;;;3.20;;
33794;SDS011;51430;52.242;21.118;2023-07-30T08:50:44;3.60;;;3.00;;
33794;SDS011;51430;52.242;21.118;2023-07-30T08:53:13;3.60;;;3.10;;
33794;SDS011;51430;52.242;21.118;2023-07-30T08:55:42;3.70;;;3.10;;
33794;SDS011;51430;52.242;21.118;2023-07-30T08:58:12;3.80;;;3.10;;
33794;SDS011;51430;52.242;21.118;2023-07-30T09:00:41;5.00;;;3.20;;
33794;SDS011;51430;52.242;21.118;2023-07-30T09:03:10;3.60;;;3.30;;
33794;SDS011;51430;52.242;21.118;2023-07-30T09:05:45;4.30;;;3.20;;
33794;SDS011;51430;52.242;21.118;2023-07-30T09:08:12;3.60;;;3.00;;
33794;SDS011;51430;52.242;21.118;2023-07-30T09:10:42;3.20;;;2.90;;
33794;SDS011;51430;52.242;21.118;2023-07-30T09:13:10;4.50;;;3.10;;
33794;SDS011;51430;52.242;21.118;2023-07-30T09:15:38;3.40;;;3.00;;
33794;SDS011;51430;52.242;21.118;2023-07-30T09:18:06;3.10;;;2.90;;
33794;SDS011;51430;52.242;21.118;2023-07-30T09:24:49;3.70;;;3.00;;
33794;SDS011;51430;52.242;21.118;2023-07-30T09:27:19;3.10;;;2.70;;
33794;SDS011;51430;52.242;21.118;2023-07-30T09:29:53;3.00;;;2.80;;
33794;SDS011;51430;52.242;21.118;2023-07-30T09:32:32;3.70;;;2.50;;
33794;SDS011;51430;52.242;21.118;2023-07-30T09:35:08;3.40;;;2.80;;
33794;SDS011;51430;52.242;21.118;2023-07-30T09:37:39;4.80;;;2.80;;
33794;SDS011;51430;52.242;21.118;2023-07-30T09:40:09;3.00;;;2.70;;
33794;SDS011;51430;52.242;21.118;2023-07-30T09:42:42;2.70;;;2.50;;
33794;SDS011;51430;52.242;21.118;2023-07-30T09:45:19;5.80;;;5.20;;
33794;SDS011;51430;52.242;21.118;2023-07-30T09:47:49;3.90;;;2.90;;
33794;SDS011;51430;52.242;21.118;2023-07-30T09:50:19;2.90;;;2.70;;
33794;SDS011;51430;52.242;21.118;2023-07-30T09:52:47;3.10;;;2.60;;
33794;SDS011;51430;52.242;21.118;2023-07-30T09:55:16;3.90;;;2.70;;
33794;SDS011;51430;52.242;21.118;2023-07-30T09:57:46;3.10;;;2.80;;
33794;SDS011;51430;52.242;21.118;2023-07-30T10:00:15;6.00;;;5.40;;
33794;SDS011;51430;52.242;21.118;2023-07-30T10:02:45;2.60;;;2.30;;
33794;SDS011;51430;52.242;21.118;2023-07-30T10:05:14;2.90;;;2.60;;
33794;SDS011;51430;52.242;21.118;2023-07-30T10:07:57;4.60;;;2.80;;
33794;SDS011;51430;52.242;21.118;2023-07-30T10:10:28;2.80;;;2.50;;
33794;SDS011;51430;52.242;21.118;2023-07-30T10:12:59;2.70;;;2.30;;
33794;SDS011;51430;52.242;21.118;2023-07-30T10:15:37;3.50;;;2.20;;
33794;SDS011;51430;52.242;21.118;2023-07-30T10:18:06;2.50;;;2.30;;
33794;SDS011;51430;52.242;21.118;2023-07-30T10:20:34;3.50;;;2.80;;
33794;SDS011;51430;52.242;21.118;2023-07-30T10:23:03;3.00;;;2.70;;
33794;SDS011;51430;52.242;21.118;2023-07-30T10:25:45;2.80;;;2.50;;
33794;SDS011;51430;52.242;21.118;2023-07-30T10:31:01;3.80;;;2.70;;
33794;SDS011;51430;52.242;21.118;2023-07-30T10:34:47;3.90;;;2.20;;
33794;SDS011;51430;52.242;21.118;2023-07-30T10:37:18;2.60;;;2.40;;
33794;SDS011;51430;52.242;21.118;2023-07-30T10:39:50;3.00;;;2.40;;
33794;SDS011;51430;52.242;21.118;2023-07-30T10:42:18;3.00;;;2.50;;
33794;SDS011;51430;52.242;21.118;2023-07-30T10:44:46;3.00;;;2.50;;
33794;SDS011;51430;52.242;21.118;2023-07-30T10:47:14;3.80;;;2.70;;
33794;SDS011;51430;52.242;21.118;2023-07-30T10:50:01;3.00;;;2.70;;
33794;SDS011;51430;52.242;21.118;2023-07-30T10:52:30;3.80;;;2.50;;
33794;SDS011;51430;52.242;21.118;2023-07-30T10:55:01;3.50;;;3.20;;
33794;SDS011;51430;52.242;21.118;2023-07-30T10:57:31;2.80;;;2.60;;
33794;SDS011;51430;52.242;21.118;2023-07-30T10:59:59;2.60;;;2.40;;
33794;SDS011;51430;52.242;21.118;2023-07-30T11:02:28;7.70;;;6.90;;
33794;SDS011;51430;52.242;21.118;2023-07-30T11:04:57;2.80;;;2.50;;
33794;SDS011;51430;52.242;21.118;2023-07-30T11:07:25;3.00;;;2.60;;
33794;SDS011;51430;52.242;21.118;2023-07-30T11:09:59;2.50;;;2.30;;
33794;SDS011;51430;52.242;21.118;2023-07-30T11:12:31;2.80;;;2.60;;
33794;SDS011;51430;52.242;21.118;2023-07-30T11:15:00;2.60;;;2.40;;
33794;SDS011;51430;52.242;21.118;2023-07-30T11:17:31;2.50;;;2.30;;
33794;SDS011;51430;52.242;21.118;2023-07-30T11:19:58;2.70;;;2.50;;
33794;SDS011;51430;52.242;21.118;2023-07-30T11:22:30;4.30;;;2.60;;
33794;SDS011;51430;52.242;21.118;2023-07-30T11:25:01;3.20;;;2.60;;
33794;SDS011;51430;52.242;21.118;2023-07-30T11:27:47;2.60;;;2.40;;
33794;SDS011;51430;52.242;21.118;2023-07-30T11:30:16;2.70;;;2.50;;
33794;SDS011;51430;52.242;21.118;2023-07-30T11:32:45;2.70;;;2.50;;
33794;SDS011;51430;52.242;21.118;2023-07-30T11:35:13;2.60;;;2.40;;
33794;SDS011;51430;52.242;21.118;2023-07-30T11:37:44;3.10;;;2.80;;
33794;SDS011;51430;52.242;21.118;2023-07-30T11:40:12;2.90;;;2.60;;
33794;SDS011;51430;52.242;21.118;2023-07-30T11:42:40;2.70;;;2.50;;
33794;SDS011;51430;52.242;21.118;2023-07-30T11:45:22;2.80;;;2.50;;
33794;SDS011;51430;52.242;21.118;2023-07-30T11:47:52;3.70;;;2.60;;
33794;SDS011;51430;52.242;21.118;2023-07-30T11:53:10;2.60;;;2.40;;
33794;SDS011;51430;52.242;21.118;2023-07-30T11:55:39;3.00;;;2.60;;
33794;SDS011;51430;52.242;21.118;2023-07-30T11:58:08;3.30;;;2.30;;
33794;SDS011;51430;52.242;21.118;2023-07-30T12:00:37;2.60;;;2.40;;
33794;SDS011;51430;52.242;21.118;2023-07-30T12:03:09;2.90;;;2.30;;
33794;SDS011;51430;52.242;21.118;2023-07-30T12:05:39;2.70;;;2.30;;
33794;SDS011;51430;52.242;21.118;2023-07-30T12:08:13;2.70;;;2.50;;
33794;SDS011;51430;52.242;21.118;2023-07-30T12:10:47;3.10;;;2.90;;
33794;SDS011;51430;52.242;21.118;2023-07-30T12:13:16;3.10;;;2.80;;
33794;SDS011;51430;52.242;21.118;2023-07-30T12:15:55;3.10;;;2.80;;
33794;SDS011;51430;52.242;21.118;2023-07-30T12:18:23;2.90;;;2.70;;
33794;SDS011;51430;52.242;21.118;2023-07-30T12:20:53;3.10;;;2.80;;
33794;SDS011;51430;52.242;21.118;2023-07-30T12:23:21;3.30;;;2.90;;
33794;SDS011;51430;52.242;21.118;2023-07-30T12:25:50;2.90;;;2.70;;
33794;SDS011;51430;52.242;21.118;2023-07-30T12:28:19;3.40;;;2.80;;
33794;SDS011;51430;52.242;21.118;2023-07-30T12:30:48;4.00;;;2.90;;
33794;SDS011;51430;52.242;21.118;2023-07-30T12:33:16;3.10;;;2.80;;
33794;SDS011;51430;52.242;21.118;2023-07-30T12:35:44;4.40;;;2.90;;
33794;SDS011;51430;52.242;21.118;2023-07-30T12:38:13;5.00;;;2.90;;
33794;SDS011;51430;52.242;21.118;2023-07-30T12:40:42;3.20;;;2.90;;
33794;SDS011;51430;52.242;21.118;2023-07-30T12:43:10;3.30;;;3.00;;
33794;SDS011;51430;52.242;21.118;2023-07-30T12:45:38;4.70;;;3.10;;
33794;SDS011;51430;52.242;21.118;2023-07-30T12:48:06;4.10;;;3.00;;
33794;SDS011;51430;52.242;21.118;2023-07-30T12:50:37;3.60;;;2.80;;
33794;SDS011;51430;52.242;21.118;2023-07-30T12:53:05;2.90;;;2.70;;
33794;SDS011;51430;52.242;21.118;2023-07-30T12:55:33;2.80;;;2.60;;
33794;SDS011;51430;52.242;21.118;2023-07-30T12:58:01;3.10;;;2.70;;
33794;SDS011;51430;52.242;21.118;2023-07-30T13:00:29;3.40;;;3.00;;
33794;SDS011;51430;52.242;21.118;2023-07-30T13:02:57;4.40;;;2.70;;
33794;SDS011;51430;52.242;21.118;2023-07-30T13:05:25;3.00;;;2.80;;
33794;SDS011;51430;52.242;21.118;2023-07-30T13:07:53;4.90;;;3.00;;
33794;SDS011;51430;52.242;21.118;2023-07-30T13:10:21;5.50;;;3.40;;
33794;SDS011;51430;52.242;21.118;2023-07-30T13:12:49;6.30;;;3.70;;
33794;SDS011;51430;52.242;21.118;2023-07-30T13:15:17;6.70;;;3.90;;
33794;SDS011;51430;52.242;21.118;2023-07-30T13:17:45;3.90;;;2.60;;
33794;SDS011;51430;52.242;21.118;2023-07-30T13:20:14;2.80;;;2.60;;
33794;SDS011;51430;52.242;21.118;2023-07-30T13:22:46;3.10;;;2.50;;
33794;SDS011;51430;52.242;21.118;2023-07-30T13:25:14;4.30;;;3.90;;
33794;SDS011;51430;52.242;21.118;2023-07-30T13:27:41;12.00;;;9.20;;
33794;SDS011;51430;52.242;21.118;2023-07-30T13:30:09;2.70;;;2.50;;
33794;SDS011;51430;52.242;21.118;2023-07-30T13:32:37;3.60;;;2.20;;
33794;SDS011;51430;52.242;21.118;2023-07-30T13:35:06;4.40;;;2.40;;
33794;SDS011;51430;52.242;21.118;2023-07-30T13:37:35;3.60;;;2.80;;
33794;SDS011;51430;52.242;21.118;2023-07-30T13:40:02;4.80;;;4.30;;
33794;SDS011;51430;52.242;21.118;2023-07-30T13:42:32;5.50;;;3.30;;
33794;SDS011;51430;52.242;21.118;2023-07-30T13:45:03;2.80;;;2.60;;
33794;SDS011;51430;52.242;21.118;2023-07-30T13:47:32;2.80;;;2.50;;
33794;SDS011;51430;52.242;21.118;2023-07-30T13:50:00;3.30;;;2.70;;
33794;SDS011;51430;52.242;21.118;2023-07-30T13:52:28;3.20;;;2.90;;
33794;SDS011;51430;52.242;21.118;2023-07-30T13:54:56;3.70;;;2.30;;
33794;SDS011;51430;52.242;21.118;2023-07-30T13:57:25;2.70;;;2.50;;
33794;SDS011;51430;52.242;21.118;2023-07-30T13:59:53;6.80;;;4.30;;
33794;SDS011;51430;52.242;21.118;2023-07-30T14:02:22;5.90;;;3.30;;
33794;SDS011;51430;52.242;21.118;2023-07-30T14:04:50;4.50;;;3.10;;
33794;SDS011;51430;52.242;21.118;2023-07-30T14:07:19;4.00;;;2.60;;
33794;SDS011;51430;52.242;21.118;2023-07-30T14:09:48;2.90;;;2.70;;
33794;SDS011;51430;52.242;21.118;2023-07-30T14:12:19;6.20;;;3.80;;
33794;SDS011;51430;52.242;21.118;2023-07-30T14:16:37;2.90;;;2.70;;
33794;SDS011;51430;52.242;21.118;2023-07-30T14:19:04;3.30;;;2.70;;
33794;SDS011;51430;52.242;21.118;2023-07-30T14:21:31;2.70;;;2.50;;
33794;SDS011;51430;52.242;21.118;2023-07-30T14:23:58;3.20;;;2.90;;
33794;SDS011;51430;52.242;21.118;2023-07-30T17:01:54;1.90;;;1.70;;
33794;SDS011;51430;52.242;21.118;2023-07-30T17:04:34;2.30;;;2.10;;
33794;SDS011;51430;52.242;21.118;2023-07-30T17:08:11;1.90;;;1.80;;
33794;SDS011;51430;52.242;21.118;2023-07-30T17:22:17;2.00;;;1.90;;
33794;SDS011;51430;52.242;21.118;2023-07-30T17:25:07;5.60;;;2.10;;
33794;SDS011;51430;52.242;21.118;2023-07-30T17:28:47;4.50;;;2.40;;
33794;SDS011;51430;52.242;21.118;2023-07-30T17:31:14;2.70;;;2.50;;
33794;SDS011;51430;52.242;21.118;2023-07-30T17:33:42;2.70;;;2.40;;
33794;SDS011;51430;52.242;21.118;2023-07-30T17:39:06;2.50;;;2.30;;
33794;SDS011;51430;52.242;21.118;2023-07-30T17:41:35;2.60;;;2.40;;
33794;SDS011;51430;52.242;21.118;2023-07-30T17:44:03;2.70;;;2.40;;
33794;SDS011;51430;52.242;21.118;2023-07-30T17:46:31;2.60;;;2.40;;
33794;SDS011;51430;52.242;21.118;2023-07-30T17:53:19;2.70;;;2.30;;
33794;SDS011;51430;52.242;21.118;2023-07-30T17:56:06;3.80;;;2.50;;
33794;SDS011;51430;52.242;21.118;2023-07-30T18:24:25;2.60;;;2.40;;
33794;SDS011;51430;52.242;21.118;2023-07-30T18:51:42;3.00;;;2.60;;
33794;SDS011;51430;52.242;21.118;2023-07-30T18:54:30;2.80;;;2.60;;
33794;SDS011;51430;52.242;21.118;2023-07-30T18:58:30;4.30;;;3.10;;
33794;SDS011;51430;52.242;21.118;2023-07-30T19:00:57;4.50;;;3.20;;
33794;SDS011;51430;52.242;21.118;2023-07-30T19:03:24;4.30;;;3.30;;
33794;SDS011;51430;52.242;21.118;2023-07-30T19:05:52;3.50;;;3.00;;